createdAt,value
2023-05-21T00:02:02.252Z,86.25
2023-05-21T00:04:28.863Z,86.28
2023-05-21T00:06:55.307Z,86.24
2023-05-21T00:09:21.758Z,86.26
2023-05-21T00:11:48.169Z,86.29
2023-05-21T00:14:14.573Z,86.31
2023-05-21T00:16:41.043Z,86.27
2023-05-21T00:19:07.741Z,86.24
2023-05-21T00:21:34.176Z,86.27
2023-05-21T00:24:00.602Z,86.31
2023-05-21T00:26:27.230Z,86.28
2023-05-21T00:28:53.642Z,86.28
2023-05-21T00:31:20.753Z,86.30
2023-05-21T00:33:47.170Z,86.28
2023-05-21T00:36:13.575Z,86.29
2023-05-21T00:38:39.999Z,86.32
2023-05-21T00:41:06.409Z,86.28
2023-05-21T00:43:32.829Z,86.30
2023-05-21T00:45:59.497Z,86.26
2023-05-21T00:48:25.946Z,86.25
2023-05-21T00:50:52.574Z,86.32
2023-05-21T00:53:18.990Z,86.31
2023-05-21T00:55:45.408Z,86.28
2023-05-21T00:58:11.821Z,86.27
2023-05-21T01:00:38.244Z,86.30
2023-05-21T01:03:04.756Z,86.27
2023-05-21T01:05:31.240Z,86.28
2023-05-21T01:07:57.658Z,86.27
2023-05-21T01:10:24.129Z,86.27
2023-05-21T01:12:50.552Z,86.25
2023-05-21T01:15:16.962Z,86.27
2023-05-21T01:17:43.380Z,86.31
2023-05-21T01:20:10.030Z,86.27
2023-05-21T01:22:36.732Z,86.25
2023-05-21T01:25:03.139Z,86.29
2023-05-21T01:27:29.774Z,86.27
2023-05-21T01:29:56.220Z,86.30
2023-05-21T01:32:22.895Z,86.30
2023-05-21T01:34:49.317Z,86.26
2023-05-21T01:37:15.997Z,86.26
2023-05-21T01:39:42.722Z,86.25
2023-05-21T01:42:09.359Z,86.18
2023-05-21T01:44:35.751Z,86.21
2023-05-21T01:47:02.117Z,86.22
2023-05-21T01:49:28.520Z,86.25
2023-05-21T01:51:54.892Z,86.20
2023-05-21T01:54:21.469Z,86.24
2023-05-21T01:56:47.838Z,86.16
2023-05-21T01:59:14.238Z,86.22
2023-05-21T02:01:40.626Z,86.22
2023-05-21T02:06:33.570Z,86.25
2023-05-21T02:08:59.967Z,86.26
2023-05-21T02:11:26.374Z,86.17
2023-05-21T02:13:52.753Z,86.19
2023-05-21T02:16:19.187Z,86.20
2023-05-21T02:18:45.609Z,86.23
2023-05-21T02:21:12.214Z,86.23
2023-05-21T02:23:38.595Z,86.22
2023-05-21T02:26:04.974Z,86.26
2023-05-21T02:28:31.343Z,86.21
2023-05-21T02:30:57.720Z,86.17
2023-05-21T02:33:24.098Z,86.19
2023-05-21T02:35:50.471Z,86.19
2023-05-21T02:38:16.893Z,86.18
2023-05-21T02:40:43.274Z,86.21
2023-05-21T02:43:09.740Z,86.20
2023-05-21T02:45:36.280Z,86.17
2023-05-21T02:48:02.886Z,86.16
2023-05-21T02:50:29.304Z,86.14
2023-05-21T02:52:55.672Z,86.16
2023-05-21T02:55:22.031Z,86.18
2023-05-21T02:57:48.389Z,86.26
2023-05-21T03:00:14.768Z,86.19
2023-05-21T03:02:41.281Z,86.16
2023-05-21T03:05:08.032Z,86.15
2023-05-21T03:07:34.404Z,86.18
2023-05-21T03:10:00.776Z,86.21
2023-05-21T03:12:27.194Z,86.11
2023-05-21T03:14:53.769Z,86.18
2023-05-21T03:17:20.136Z,86.19
2023-05-21T03:19:46.525Z,86.22
2023-05-21T03:22:12.929Z,86.30
2023-05-21T03:24:39.323Z,86.11
2023-05-21T03:27:05.915Z,86.09
2023-05-21T03:29:32.505Z,86.08
2023-05-21T03:31:58.964Z,86.13
2023-05-21T03:34:25.358Z,86.16
2023-05-21T03:36:51.724Z,86.08
2023-05-21T03:39:18.313Z,86.10
2023-05-21T03:41:44.702Z,86.09
2023-05-21T03:44:11.648Z,86.09
2023-05-21T03:46:38.713Z,86.10
2023-05-21T03:49:05.215Z,86.12
2023-05-21T03:51:32.621Z,86.08
2023-05-21T03:53:59.059Z,86.04
2023-05-21T03:56:25.478Z,86.10
2023-05-21T03:58:51.835Z,86.01
2023-05-21T04:01:18.207Z,86.00
2023-05-21T04:03:44.726Z,86.03
2023-05-21T04:06:11.274Z,85.96
2023-05-21T04:08:37.636Z,86.00
2023-05-21T04:11:04.009Z,86.02
2023-05-21T04:13:30.385Z,86.11
2023-05-21T04:15:57.020Z,85.94
2023-05-21T04:18:23.415Z,86.03
2023-05-21T04:20:49.783Z,85.92
2023-05-21T04:23:16.361Z,85.93
2023-05-21T04:25:42.740Z,85.95
2023-05-21T04:28:09.137Z,85.94
2023-05-21T04:30:35.532Z,86.00
2023-05-21T04:33:01.987Z,86.06
2023-05-21T04:35:28.429Z,85.98
2023-05-21T04:37:54.800Z,86.00
2023-05-21T04:40:21.195Z,85.99
2023-05-21T04:42:47.568Z,86.00
2023-05-21T04:45:13.958Z,86.01
2023-05-21T04:47:40.338Z,86.05
2023-05-21T04:50:06.764Z,86.06
2023-05-21T04:52:33.151Z,86.04
2023-05-21T04:54:59.533Z,86.03
2023-05-21T04:57:26.132Z,86.05
2023-05-21T04:59:52.774Z,86.02
2023-05-21T05:02:19.166Z,86.05
2023-05-21T05:04:45.742Z,86.04
2023-05-21T05:07:12.127Z,86.10
2023-05-21T05:09:38.720Z,86.09
2023-05-21T05:12:05.105Z,86.07
2023-05-21T05:14:31.697Z,86.06
2023-05-21T05:16:58.382Z,86.13
2023-05-21T05:19:24.895Z,86.18
2023-05-21T05:21:51.316Z,86.27
2023-05-21T05:24:17.682Z,86.17
2023-05-21T05:26:44.054Z,86.19
2023-05-21T05:29:10.627Z,86.19
2023-05-21T05:31:36.994Z,86.20
2023-05-21T05:34:03.571Z,86.25
2023-05-21T05:36:29.949Z,86.21
2023-05-21T05:38:56.541Z,86.28
2023-05-21T05:41:22.910Z,86.23
2023-05-21T05:43:49.275Z,86.28
2023-05-21T05:46:15.694Z,86.29
2023-05-21T05:48:42.292Z,86.26
2023-05-21T05:51:08.684Z,86.36
2023-05-21T05:53:35.071Z,86.33
2023-05-21T05:56:01.462Z,86.37
2023-05-21T05:58:27.877Z,86.29
2023-05-21T06:00:54.266Z,86.30
2023-05-21T06:03:20.720Z,86.38
2023-05-21T06:05:47.561Z,86.30
2023-05-21T06:08:13.972Z,86.34
2023-05-21T06:10:40.358Z,86.42
2023-05-21T06:13:06.735Z,86.36
2023-05-21T06:15:33.322Z,86.40
2023-05-21T06:17:59.746Z,86.43
2023-05-21T06:20:26.164Z,86.45
2023-05-21T06:22:52.582Z,86.40
2023-05-21T06:25:18.940Z,86.41
2023-05-21T06:27:45.316Z,86.43
2023-05-21T06:30:11.688Z,86.42
2023-05-21T06:32:38.157Z,86.46
2023-05-21T06:35:04.641Z,86.48
2023-05-21T06:37:31.017Z,86.50
2023-05-21T06:39:57.425Z,86.51
2023-05-21T06:42:23.831Z,86.52
2023-05-21T06:44:50.414Z,86.50
2023-05-21T06:47:16.992Z,86.52
2023-05-21T06:49:43.375Z,86.51
2023-05-21T06:52:09.789Z,86.52
2023-05-21T06:54:36.190Z,86.50
2023-05-21T06:57:02.581Z,86.51
2023-05-21T06:59:28.952Z,86.52
2023-05-21T07:01:55.357Z,86.51
2023-05-21T07:04:21.804Z,86.50
2023-05-21T07:06:48.165Z,86.52
2023-05-21T07:09:14.548Z,86.48
2023-05-21T07:11:40.931Z,86.50
2023-05-21T07:14:07.323Z,86.49
2023-05-21T07:16:33.734Z,86.48
2023-05-21T07:19:00.218Z,86.51
2023-05-21T07:21:26.634Z,86.47
2023-05-21T07:23:53.014Z,86.50
2023-05-21T07:26:19.383Z,86.48
2023-05-21T07:28:45.782Z,86.46
2023-05-21T07:31:12.263Z,86.50
2023-05-21T07:33:38.760Z,86.48
2023-05-21T07:36:05.370Z,86.47
2023-05-21T07:38:31.739Z,86.50
2023-05-21T07:40:58.123Z,86.51
2023-05-21T07:43:24.516Z,86.49
2023-05-21T07:45:50.891Z,86.51
2023-05-21T07:48:17.477Z,86.48
2023-05-21T07:50:43.851Z,86.49
2023-05-21T07:53:10.553Z,86.50
2023-05-21T07:55:37.263Z,86.51
2023-05-21T07:58:03.832Z,86.53
2023-05-21T08:00:30.215Z,86.49
2023-05-21T08:02:57.566Z,86.45
2023-05-21T08:05:23.999Z,86.48
2023-05-21T08:07:50.373Z,86.55
2023-05-21T08:10:18.489Z,86.62
2023-05-21T08:12:45.915Z,86.61
2023-05-21T08:15:12.305Z,86.58
2023-05-21T08:17:38.812Z,86.53
2023-05-21T08:20:05.209Z,86.54
2023-05-21T08:22:31.806Z,86.53
2023-05-21T08:24:58.181Z,86.50
2023-05-21T08:27:24.756Z,86.52
2023-05-21T08:29:51.154Z,86.71
2023-05-21T08:32:17.863Z,86.76
2023-05-21T08:34:44.284Z,86.72
2023-05-21T08:37:10.659Z,86.86
2023-05-21T08:39:37.076Z,86.86
2023-05-21T08:42:03.453Z,86.70
2023-05-21T08:44:29.835Z,86.86
2023-05-21T08:46:56.495Z,86.90
2023-05-21T08:49:23.774Z,86.83
2023-05-21T08:51:51.489Z,86.84
2023-05-21T08:54:18.471Z,86.68
2023-05-21T08:56:44.846Z,86.66
2023-05-21T08:59:11.217Z,86.70
2023-05-21T09:01:37.682Z,86.65
2023-05-21T09:04:16.272Z,86.74
2023-05-21T09:06:46.422Z,86.84
2023-05-21T09:09:12.795Z,86.82
2023-05-21T09:11:39.390Z,86.77
2023-05-21T09:14:05.768Z,86.62
2023-05-21T09:16:32.158Z,86.63
2023-05-21T09:18:58.794Z,86.65
2023-05-21T09:21:25.168Z,86.72
2023-05-21T09:23:51.754Z,86.73
2023-05-21T09:26:18.114Z,86.69
2023-05-21T09:28:44.501Z,86.72
2023-05-21T09:31:10.933Z,86.72
2023-05-21T09:33:37.534Z,86.74
2023-05-21T09:36:03.925Z,86.74
2023-05-21T09:38:30.315Z,86.75
2023-05-21T09:40:56.760Z,86.80
2023-05-21T09:43:23.158Z,86.72
2023-05-21T09:45:49.525Z,86.65
2023-05-21T09:48:15.919Z,86.73
2023-05-21T09:50:42.287Z,86.70
2023-05-21T09:53:08.872Z,86.74
2023-05-21T09:55:35.246Z,86.87
2023-05-21T09:58:01.618Z,87.17
2023-05-21T10:00:28.011Z,87.25
2023-05-21T10:02:54.545Z,86.83
2023-05-21T10:05:20.982Z,86.77
2023-05-21T10:07:47.364Z,86.77
2023-05-21T10:10:13.953Z,86.73
2023-05-21T10:12:40.366Z,86.74
2023-05-21T10:15:07.341Z,86.74
2023-05-21T10:17:33.988Z,87.12
2023-05-21T10:20:00.433Z,87.38
2023-05-21T10:22:26.836Z,87.55
2023-05-21T10:24:53.233Z,87.13
2023-05-21T10:27:19.599Z,86.80
2023-05-21T10:29:46.549Z,86.79
2023-05-21T10:32:13.183Z,86.79
2023-05-21T10:34:39.593Z,86.74
2023-05-21T10:37:06.186Z,86.71
2023-05-21T10:39:32.644Z,86.81
2023-05-21T10:41:59.270Z,86.82
2023-05-21T10:44:25.716Z,86.74
2023-05-21T10:46:52.299Z,86.72
2023-05-21T10:49:18.892Z,86.80
2023-05-21T10:51:45.264Z,86.79
2023-05-21T10:54:11.652Z,86.94
2023-05-21T10:56:38.029Z,87.10
2023-05-21T10:59:04.602Z,86.81
2023-05-21T11:01:31.051Z,86.82
2023-05-21T11:03:57.688Z,86.72
2023-05-21T11:06:24.105Z,86.96
2023-05-21T11:08:51.324Z,86.88
2023-05-21T11:11:19.004Z,86.91
2023-05-21T11:13:45.394Z,86.98
2023-05-21T11:16:11.772Z,86.85
2023-05-21T11:18:38.161Z,86.90
2023-05-21T11:21:04.557Z,86.92
2023-05-21T11:23:30.987Z,86.95
2023-05-21T11:25:57.386Z,86.95
2023-05-21T11:28:23.770Z,86.82
2023-05-21T11:30:50.150Z,86.80
2023-05-21T11:33:16.522Z,86.98
2023-05-21T11:35:42.897Z,87.12
2023-05-21T11:38:09.264Z,86.95
2023-05-21T11:40:35.802Z,86.97
2023-05-21T11:43:02.367Z,86.93
2023-05-21T11:45:28.972Z,86.88
2023-05-21T11:47:55.390Z,86.92
2023-05-21T11:50:22.060Z,86.87
2023-05-21T11:52:48.465Z,86.86
2023-05-21T11:55:14.834Z,86.95
2023-05-21T11:57:41.214Z,86.84
2023-05-21T12:00:07.609Z,86.96
2023-05-21T12:02:34.056Z,86.90
2023-05-21T12:05:00.777Z,86.89
2023-05-21T12:07:27.488Z,86.91
2023-05-21T12:09:53.867Z,86.87
2023-05-21T12:12:20.247Z,86.93
2023-05-21T12:14:46.608Z,86.86
2023-05-21T12:17:12.979Z,86.91
2023-05-21T12:19:39.359Z,86.96
2023-05-21T12:22:05.754Z,86.95
2023-05-21T12:24:32.144Z,86.98
2023-05-21T12:26:58.511Z,86.94
2023-05-21T12:29:24.879Z,86.94
2023-05-21T12:31:51.287Z,86.86
2023-05-21T12:34:17.652Z,86.91
2023-05-21T12:36:44.228Z,86.84
2023-05-21T12:39:11.315Z,86.83
2023-05-21T12:41:38.356Z,86.86
2023-05-21T12:44:04.734Z,87.08
2023-05-21T12:46:31.373Z,87.31
2023-05-21T12:48:57.791Z,87.12
2023-05-21T12:51:24.463Z,86.95
2023-05-21T12:53:50.838Z,87.50
2023-05-21T12:56:17.459Z,87.28
2023-05-21T12:58:43.839Z,86.92
2023-05-21T13:01:10.256Z,86.92
2023-05-21T13:03:36.707Z,86.92
2023-05-21T13:06:03.097Z,86.89
2023-05-21T13:08:29.481Z,86.92
2023-05-21T13:10:55.892Z,87.34
2023-05-21T13:13:22.328Z,87.37
2023-05-21T13:15:48.732Z,87.14
2023-05-21T13:18:15.140Z,87.20
2023-05-21T13:20:41.573Z,87.13
2023-05-21T13:23:10.566Z,87.37
2023-05-21T13:25:37.959Z,88.00
2023-05-21T13:28:04.323Z,87.33
2023-05-21T13:30:30.696Z,87.06
2023-05-21T13:32:57.331Z,86.97
2023-05-21T13:35:23.758Z,86.98
2023-05-21T13:37:50.328Z,87.03
2023-05-21T13:40:16.880Z,87.00
2023-05-21T13:42:43.329Z,86.93
2023-05-21T13:45:09.706Z,86.94
2023-05-21T13:47:39.183Z,86.95
2023-05-21T13:50:06.529Z,86.87
2023-05-21T13:52:32.958Z,87.00
2023-05-21T13:54:59.345Z,87.10
2023-05-21T13:57:25.725Z,87.20
2023-05-21T13:59:52.106Z,87.13
2023-05-21T14:02:18.511Z,87.10
2023-05-21T14:04:44.917Z,87.13
2023-05-21T14:07:11.288Z,87.18
2023-05-21T14:09:37.695Z,87.11
2023-05-21T14:12:06.136Z,87.05
2023-05-21T14:14:33.034Z,87.11
2023-05-21T14:16:59.567Z,87.03
2023-05-21T14:19:30.350Z,87.03
2023-05-21T14:21:56.759Z,87.04
2023-05-21T14:24:23.147Z,87.08
2023-05-21T14:26:49.518Z,87.01
2023-05-21T14:29:15.898Z,87.04
2023-05-21T14:31:42.322Z,87.04
2023-05-21T14:34:08.759Z,87.03
2023-05-21T14:36:35.161Z,87.02
2023-05-21T14:39:01.531Z,87.07
2023-05-21T14:41:27.944Z,87.00
2023-05-21T14:43:54.326Z,87.03
2023-05-21T14:46:20.757Z,87.39
2023-05-21T14:48:47.139Z,87.50
2023-05-21T14:51:13.522Z,87.15
2023-05-21T14:53:39.885Z,87.19
2023-05-21T14:56:06.263Z,87.14
2023-05-21T14:58:32.632Z,87.13
2023-05-21T15:00:59.021Z,87.57
2023-05-21T15:03:25.512Z,87.77
2023-05-21T15:05:51.937Z,87.90
2023-05-21T15:08:18.309Z,87.75
2023-05-21T15:10:44.676Z,87.70
2023-05-21T15:13:11.058Z,87.70
2023-05-21T15:15:37.695Z,87.53
2023-05-21T15:18:04.546Z,87.54
2023-05-21T15:20:30.987Z,87.42
2023-05-21T15:23:12.345Z,87.34
2023-05-21T15:25:42.945Z,87.27
2023-05-21T15:28:09.328Z,87.30
2023-05-21T15:30:35.755Z,87.22
2023-05-21T15:33:02.138Z,87.22
2023-05-21T15:35:28.647Z,87.36
2023-05-21T15:37:55.125Z,87.29
2023-05-21T15:40:21.515Z,87.23
2023-05-21T15:42:48.114Z,87.20
2023-05-21T15:45:14.486Z,87.22
2023-05-21T15:47:42.597Z,87.22
2023-05-21T15:50:09.314Z,87.16
2023-05-21T15:52:35.700Z,87.21
2023-05-21T15:55:02.077Z,87.22
2023-05-21T15:57:28.440Z,87.14
2023-05-21T15:59:54.854Z,87.15
2023-05-21T16:02:21.236Z,87.12
2023-05-21T16:04:47.870Z,87.14
2023-05-21T16:07:14.341Z,87.31
2023-05-21T16:09:40.860Z,87.34
2023-05-21T16:12:07.446Z,87.22
2023-05-21T16:14:33.829Z,87.24
2023-05-21T16:17:00.285Z,87.46
2023-05-21T16:19:26.738Z,87.67
2023-05-21T16:21:53.137Z,87.57
2023-05-21T16:24:19.732Z,87.53
2023-05-21T16:26:46.108Z,87.64
2023-05-21T16:29:12.504Z,87.70
2023-05-21T16:31:38.921Z,87.73
2023-05-21T16:34:05.566Z,87.46
2023-05-21T16:36:31.944Z,87.34
2023-05-21T16:38:58.314Z,87.28
2023-05-21T16:41:24.700Z,87.47
2023-05-21T16:43:51.080Z,87.47
2023-05-21T16:46:17.532Z,87.49
2023-05-21T16:48:43.929Z,87.42
2023-05-21T16:51:10.299Z,87.34
2023-05-21T16:53:36.909Z,87.30
2023-05-21T16:56:03.332Z,87.19
2023-05-21T16:58:29.719Z,87.20
2023-05-21T17:00:56.096Z,87.19
2023-05-21T17:03:22.696Z,87.12
2023-05-21T17:05:49.306Z,87.16
2023-05-21T17:08:15.695Z,87.12
2023-05-21T17:10:42.079Z,87.23
2023-05-21T17:13:20.718Z,87.17
2023-05-21T17:15:48.464Z,87.13
2023-05-21T17:18:14.918Z,87.07
2023-05-21T17:20:41.400Z,87.07
2023-05-21T17:23:08.042Z,87.03
2023-05-21T17:25:34.728Z,87.03
2023-05-21T17:28:01.339Z,87.04
2023-05-21T17:30:27.725Z,87.03
2023-05-21T17:32:54.433Z,87.03
2023-05-21T17:35:20.856Z,87.03
2023-05-21T17:37:47.224Z,87.11
2023-05-21T17:40:13.600Z,87.04
2023-05-21T17:42:39.983Z,87.06
2023-05-21T17:45:06.370Z,87.02
2023-05-21T17:47:32.806Z,87.02
2023-05-21T17:49:59.197Z,87.01
2023-05-21T17:52:25.582Z,87.02
2023-05-21T17:54:51.965Z,86.97
2023-05-21T17:57:18.341Z,86.95
2023-05-21T17:59:44.745Z,86.99
2023-05-21T18:02:11.122Z,86.97
2023-05-21T18:04:37.522Z,86.93
2023-05-21T18:07:03.920Z,86.95
2023-05-21T18:09:30.297Z,86.95
2023-05-21T18:11:57.914Z,86.99
2023-05-21T18:14:24.705Z,86.95
2023-05-21T18:16:51.143Z,86.96
2023-05-21T18:19:17.718Z,86.95
2023-05-21T18:21:44.140Z,87.02
2023-05-21T18:24:10.508Z,86.95
2023-05-21T18:26:36.899Z,86.96
2023-05-21T18:29:03.277Z,86.93
2023-05-21T18:31:29.679Z,86.98
2023-05-21T18:33:58.528Z,86.95
2023-05-21T18:36:25.151Z,86.97
2023-05-21T18:38:51.534Z,86.93
2023-05-21T18:41:17.912Z,86.95
2023-05-21T18:43:44.294Z,86.92
2023-05-21T18:46:10.703Z,86.96
2023-05-21T18:48:37.112Z,86.95
2023-05-21T18:51:03.953Z,86.90
2023-05-21T18:53:30.328Z,86.93
2023-05-21T18:55:56.701Z,86.96
2023-05-21T18:58:23.247Z,86.92
2023-05-21T19:00:49.629Z,86.97
2023-05-21T19:03:15.997Z,86.96
2023-05-21T19:05:42.506Z,86.92
2023-05-21T19:08:08.937Z,86.89
2023-05-21T19:13:06.099Z,86.93
2023-05-21T19:15:32.742Z,86.93
2023-05-21T19:17:59.368Z,86.93
2023-05-21T19:20:25.776Z,86.96
2023-05-21T19:22:52.131Z,86.94
2023-05-21T19:25:18.516Z,86.93
2023-05-21T19:27:45.099Z,86.94
2023-05-21T19:30:12.266Z,86.94
2023-05-21T19:32:38.677Z,86.90
2023-05-21T19:35:05.062Z,86.97
2023-05-21T19:37:31.446Z,86.93
2023-05-21T19:39:57.826Z,86.88
2023-05-21T19:42:24.188Z,86.87
2023-05-21T19:44:50.550Z,86.95
2023-05-21T19:47:16.942Z,86.89
2023-05-21T19:49:43.332Z,86.89
2023-05-21T19:52:10.248Z,86.93
2023-05-21T19:54:36.623Z,86.89
2023-05-21T19:57:04.493Z,86.90
2023-05-21T19:59:30.872Z,86.89
2023-05-21T20:01:58.056Z,86.90
2023-05-21T20:04:25.228Z,86.89
2023-05-21T20:06:51.673Z,86.91
2023-05-21T20:09:18.050Z,86.95
2023-05-21T20:11:44.441Z,86.94
2023-05-21T20:14:10.830Z,86.98
2023-05-21T20:16:37.311Z,86.98
2023-05-21T20:19:03.891Z,86.97
2023-05-21T20:21:30.376Z,87.01
2023-05-21T20:23:56.787Z,87.01
2023-05-21T20:26:23.206Z,87.04
2023-05-21T20:28:49.589Z,87.08
2023-05-21T20:31:16.051Z,87.08
2023-05-21T20:33:42.650Z,87.05
2023-05-21T20:36:09.018Z,87.13
2023-05-21T20:38:35.384Z,87.06
2023-05-21T20:41:01.768Z,87.09
2023-05-21T20:43:28.348Z,87.08
2023-05-21T20:45:54.979Z,87.06
2023-05-21T20:48:21.573Z,87.13
2023-05-21T20:50:47.969Z,87.10
2023-05-21T20:53:14.342Z,87.18
2023-05-21T20:55:40.927Z,87.12
2023-05-21T20:58:07.309Z,87.04
2023-05-21T21:00:33.707Z,87.10
2023-05-21T21:03:00.182Z,87.14
2023-05-21T21:05:26.915Z,87.14
2023-05-21T21:07:55.574Z,87.13
2023-05-21T21:10:22.582Z,87.07
2023-05-21T21:12:48.952Z,87.06
2023-05-21T21:15:15.332Z,87.11
2023-05-21T21:17:42.000Z,87.13
2023-05-21T21:20:08.401Z,87.11
2023-05-21T21:22:34.789Z,87.08
2023-05-21T21:25:01.162Z,87.14
2023-05-21T21:27:27.548Z,87.15
2023-05-21T21:29:53.927Z,87.13
2023-05-21T21:32:20.314Z,87.18
2023-05-21T21:34:46.918Z,87.17
2023-05-21T21:37:13.671Z,87.15
2023-05-21T21:39:40.095Z,87.13
2023-05-21T21:42:06.699Z,87.21
2023-05-21T21:44:33.079Z,87.16
2023-05-21T21:46:59.443Z,87.18
2023-05-21T21:49:25.827Z,87.18
2023-05-21T21:51:52.194Z,87.15
2023-05-21T21:54:18.565Z,87.17
2023-05-21T21:56:45.137Z,87.13
2023-05-21T21:59:11.502Z,87.17
2023-05-21T22:01:37.950Z,87.22
2023-05-21T22:04:04.428Z,87.32
2023-05-21T22:06:30.781Z,87.22
2023-05-21T22:08:57.256Z,87.23
2023-05-21T22:11:23.691Z,87.19
2023-05-21T22:13:50.083Z,87.25
2023-05-21T22:16:16.508Z,87.22
2023-05-21T22:18:42.929Z,87.22
2023-05-21T22:21:09.801Z,87.22
2023-05-21T22:23:36.701Z,87.27
2023-05-21T22:26:03.150Z,87.25
2023-05-21T22:28:29.550Z,87.30
2023-05-21T22:30:55.961Z,87.26
2023-05-21T22:33:22.423Z,87.31
2023-05-21T22:35:48.883Z,87.34
2023-05-21T22:38:15.264Z,87.28
2023-05-21T22:40:41.658Z,87.27
2023-05-21T22:43:08.045Z,87.29
2023-05-21T22:45:34.407Z,87.28
2023-05-21T22:48:01.038Z,87.29
2023-05-21T22:50:27.426Z,87.23
2023-05-21T22:52:54.077Z,87.22
2023-05-21T22:55:20.434Z,87.35
2023-05-21T22:57:46.797Z,87.29
2023-05-21T23:00:13.182Z,87.27
2023-05-21T23:02:39.789Z,87.34
2023-05-21T23:05:07.228Z,87.29
2023-05-21T23:07:33.836Z,87.28
2023-05-21T23:10:00.437Z,87.26
2023-05-21T23:12:26.814Z,87.28
2023-05-21T23:14:53.398Z,87.23
2023-05-21T23:17:19.833Z,87.24
2023-05-21T23:19:46.221Z,87.28
2023-05-21T23:22:12.600Z,87.26
2023-05-21T23:24:38.994Z,87.26
2023-05-21T23:27:05.378Z,87.26
2023-05-21T23:29:31.745Z,87.26
2023-05-21T23:31:58.476Z,87.29
2023-05-21T23:34:24.923Z,87.28
2023-05-21T23:36:51.506Z,87.23
2023-05-21T23:39:18.098Z,87.20
2023-05-21T23:41:44.472Z,87.20
2023-05-21T23:44:11.058Z,87.25
2023-05-21T23:46:37.428Z,87.19
2023-05-21T23:49:03.807Z,87.17
2023-05-21T23:51:30.212Z,87.23
2023-05-21T23:53:56.588Z,87.18
2023-05-21T23:56:22.952Z,87.24
2023-05-21T23:58:49.335Z,87.20
